Clayton, NM

11:59 PM MST on January 31, 2015 (GMT -0700)
Clayton Municipal | Change Station
CLOSE
Current Station
Airport
Location: Clayton,
Elevation: 4970 ft
Nearby Weather Stations

Elev 4970 ft 36.45 °N, 103.15 °W | Updated 4 minutes ago

Partly Cloudy
Partly Cloudy
35 °F
Feels Like 29 °F
N
7
Wind Variable Wind from NNW

Today
High -- | Low -- °F
--% Chance of Precip.
Yesterday
High -- | Low -- °F
Precip. -- in
6:55 AM 5:17 PM
Waxing Gibbous, 93% visible
Pressure 29.86 in
Visibility 10.0 miles
Clouds Few 8000 ft
Windchill 29 °F
Dew Point 33 °F
Humidity 92%
Rainfall 0.00 in
Snow Depth Not available.
UV 0 out of 12
Pollen 1.70 out of 12
Air Quality Not available.
Flu Activity Not available.
METAR KCAO 010655Z AUTO 33006KT 10SM FEW080 02/01 A2985 RMK AO2 SLP111 T00170006 400670000

More Conditions Fewer Conditions

Pressure 29.86 in
Visibility 10.0 miles
Clouds Few 8000 ft
Windchill 29 °F
Dew Point 33 °F
Humidity 92%
Rainfall 0.00 in
Snow Depth Not available.
UV 0 out of 12
Pollen 1.70 out of 12
Air Quality Not available.
Flu Activity Not available.
METAR KCAO 010655Z AUTO 33006KT 10SM FEW080 02/01 A2985 RMK AO2 SLP111 T00170006 400670000

More Conditions Fewer Conditions

Nowcast | as of 11:33 PM MST on January 31, 2015

Light rain and snow will continue across portions of northeastern New Mexico through approximately 2 am. Precipitation will generally be focused north of a line from Wagon Mound to Nara Visa with rainfall amounts of a few hundredths of an inch or less and generally an inch or less additional snow accumulation in the higher elevations of northern Union County and far northeast Colfax County. Otherwise... areas of fog will persist...with some locally dense fog resulting in visibilities below one mile in some locations...including the Roswell and Tucumcari areas. For the latest Road conditions visit N M roads dot com or dial 5 1 1.

×

10-Day Weather Forecast

Almanac

Astronomy

Jan. 31, 2015 Rise Set
Actual Time
Civil Twilight
Nautical Twilight
Astronomical Twilight
Moon
Length of Visible Light
Length of Day
Tomorrow will be .
, % of the Moon is Illuminated

Today's Extremes

State Highs State Lows

Community

WunderPhotos

Upload Photos

1,792,324 photos uploaded!

WunderBlogs® & News

Nearby

Air Quality

  Air Quality AQ Index Pollutant
Not available.

Snow Depth

Station Depth Elevation

Earthquake Activity

City Distance Mag. Time & Date
Minimum magnitude displayed is 2.5.

Coastal Water Temperatures

Place Temperature

Nearby Weather Stations